createdAt,value
2023-04-16T00:00:52.757Z,8.79
2023-04-16T00:01:52.807Z,8.82
2023-04-16T00:02:53.069Z,8.71
2023-04-16T00:03:52.964Z,8.70
2023-04-16T00:04:52.743Z,8.70
2023-04-16T00:05:52.678Z,8.67
2023-04-16T00:06:52.656Z,8.64
2023-04-16T00:07:52.635Z,8.64
2023-04-16T00:08:52.659Z,8.61
2023-04-16T00:09:52.656Z,8.60
2023-04-16T00:10:52.626Z,8.58
2023-04-16T00:11:52.612Z,8.55
2023-04-16T00:12:52.570Z,8.53
2023-04-16T00:13:52.550Z,8.55
2023-04-16T00:14:52.568Z,8.53
2023-04-16T00:15:52.571Z,8.51
2023-04-16T00:16:52.531Z,8.46
2023-04-16T00:17:52.676Z,8.45
2023-04-16T00:18:52.501Z,8.41
2023-04-16T00:19:52.503Z,8.41
2023-04-16T00:20:52.526Z,8.37
2023-04-16T00:21:52.462Z,8.38
2023-04-16T00:22:52.472Z,8.38
2023-04-16T00:23:52.441Z,8.38
2023-04-16T00:24:52.446Z,8.38
2023-04-16T00:25:52.464Z,8.38
2023-04-16T00:26:52.418Z,8.38
2023-04-16T00:27:52.421Z,8.34
2023-04-16T00:28:52.381Z,8.33
2023-04-16T00:29:52.372Z,8.34
2023-04-16T00:30:52.437Z,8.34
2023-04-16T00:31:52.372Z,8.36
2023-04-16T00:32:52.385Z,8.33
2023-04-16T00:33:52.386Z,8.31
2023-04-16T00:34:52.322Z,8.30
2023-04-16T00:35:52.346Z,8.41
2023-04-16T00:36:52.286Z,8.42
2023-04-16T00:37:52.298Z,8.44
2023-04-16T00:38:52.264Z,8.42
2023-04-16T00:39:52.275Z,8.42
2023-04-16T00:40:52.283Z,8.42
2023-04-16T00:41:52.229Z,8.38
2023-04-16T00:42:52.240Z,8.34
2023-04-16T00:43:52.208Z,8.36
2023-04-16T00:44:52.206Z,8.41
2023-04-16T00:45:52.271Z,8.44
2023-04-16T00:46:52.189Z,8.38
2023-04-16T00:47:52.174Z,8.37
2023-04-16T00:48:52.159Z,8.41
2023-04-16T00:49:52.148Z,8.45
2023-04-16T00:50:52.187Z,8.46
2023-04-16T00:51:52.130Z,8.48
2023-04-16T00:52:52.120Z,8.48
2023-04-16T00:53:52.128Z,8.49
2023-04-16T00:54:52.131Z,8.49
2023-04-16T00:55:52.123Z,8.49
2023-04-16T00:56:52.208Z,8.49
2023-04-16T00:57:52.084Z,8.48
2023-04-16T00:58:52.056Z,8.46
2023-04-16T00:59:52.046Z,8.44
2023-04-16T01:00:52.056Z,8.45
2023-04-16T01:01:52.101Z,8.45
2023-04-16T01:02:52.120Z,8.45
2023-04-16T01:03:52.169Z,8.44
2023-04-16T01:04:51.997Z,8.44
2023-04-16T01:05:52.018Z,8.45
2023-04-16T01:06:51.957Z,8.42
2023-04-16T01:07:51.961Z,8.42
2023-04-16T01:08:51.939Z,8.42
2023-04-16T01:09:51.935Z,8.41
2023-04-16T01:10:51.940Z,8.38
2023-04-16T01:11:51.918Z,8.36
2023-04-16T01:12:51.911Z,8.36
2023-04-16T01:13:51.891Z,8.36
2023-04-16T01:14:51.885Z,8.36
2023-04-16T01:15:51.959Z,8.34
2023-04-16T01:16:51.829Z,8.36
2023-04-16T01:17:51.854Z,8.34
2023-04-16T01:18:51.820Z,8.33
2023-04-16T01:19:51.823Z,8.33
2023-04-16T01:20:51.852Z,8.33
2023-04-16T01:21:51.802Z,8.31
2023-04-16T01:22:51.808Z,8.33
2023-04-16T01:23:51.793Z,8.31
2023-04-16T01:24:51.769Z,8.30
2023-04-16T01:25:51.786Z,8.30
2023-04-16T01:26:51.720Z,8.27
2023-04-16T01:27:51.734Z,8.27
2023-04-16T01:28:51.715Z,8.24
2023-04-16T01:29:51.725Z,8.26
2023-04-16T01:30:51.704Z,8.24
2023-04-16T01:31:51.742Z,8.26
2023-04-16T01:32:51.720Z,8.24
2023-04-16T01:33:51.657Z,8.24
2023-04-16T01:34:51.666Z,8.24
2023-04-16T01:35:51.634Z,8.27
2023-04-16T01:36:51.659Z,8.27
2023-04-16T01:37:51.595Z,8.30
2023-04-16T01:38:51.608Z,8.33
2023-04-16T01:39:51.592Z,8.34
2023-04-16T01:40:51.605Z,8.33
2023-04-16T01:41:51.614Z,8.36
2023-04-16T01:42:51.558Z,8.37
2023-04-16T01:43:51.536Z,8.36
2023-04-16T01:44:51.535Z,8.36
2023-04-16T01:45:51.518Z,8.37
2023-04-16T01:46:51.552Z,8.38
2023-04-16T01:47:51.613Z,8.38
2023-04-16T01:48:51.556Z,8.41
2023-04-16T01:49:51.477Z,8.41
2023-04-16T01:50:51.476Z,8.42
2023-04-16T01:51:51.528Z,8.41
2023-04-16T01:52:51.450Z,8.41
2023-04-16T01:53:51.429Z,8.38
2023-04-16T01:54:51.397Z,8.41
2023-04-16T01:55:51.406Z,8.41
2023-04-16T01:56:51.440Z,8.42
2023-04-16T01:57:51.398Z,8.44
2023-04-16T01:58:51.371Z,8.44
2023-04-16T01:59:51.393Z,8.46
2023-04-16T02:00:51.397Z,8.41
2023-04-16T02:01:51.428Z,8.44
2023-04-16T02:02:51.436Z,8.45
2023-04-16T02:03:51.408Z,8.42
2023-04-16T02:04:51.305Z,8.44
2023-04-16T02:05:51.302Z,8.44
2023-04-16T02:06:51.339Z,8.42
2023-04-16T02:07:51.288Z,8.41
2023-04-16T02:08:51.243Z,8.41
2023-04-16T02:09:51.263Z,8.41
2023-04-16T02:10:51.235Z,8.42
2023-04-16T02:11:51.323Z,8.37
2023-04-16T02:12:51.239Z,8.41
2023-04-16T02:13:51.203Z,8.44
2023-04-16T02:14:51.168Z,8.37
2023-04-16T02:15:51.163Z,8.36
2023-04-16T02:16:51.207Z,8.37
2023-04-16T02:17:51.181Z,8.34
2023-04-16T02:18:51.151Z,8.37
2023-04-16T02:19:51.119Z,8.36
2023-04-16T02:20:51.139Z,8.34
2023-04-16T02:21:51.127Z,8.31
2023-04-16T02:22:51.086Z,8.27
2023-04-16T02:23:51.094Z,8.27
2023-04-16T02:24:51.075Z,8.24
2023-04-16T02:25:51.077Z,8.18
2023-04-16T02:26:51.114Z,8.16
2023-04-16T02:27:51.059Z,8.16
2023-04-16T02:28:51.040Z,8.15
2023-04-16T02:29:51.011Z,8.13
2023-04-16T02:30:51.007Z,8.13
2023-04-16T02:31:51.042Z,8.10
2023-04-16T02:32:51.014Z,8.10
2023-04-16T02:33:50.975Z,8.08
2023-04-16T02:34:50.956Z,8.05
2023-04-16T02:35:50.949Z,8.03
2023-04-16T02:36:50.932Z,8.01
2023-04-16T02:37:50.963Z,8.00
2023-04-16T02:38:50.889Z,7.98
2023-04-16T02:39:50.895Z,7.98
2023-04-16T02:40:50.894Z,7.97
2023-04-16T02:41:50.856Z,7.94
2023-04-16T02:42:50.892Z,7.95
2023-04-16T02:43:50.857Z,7.95
2023-04-16T02:44:50.832Z,7.93
2023-04-16T02:45:50.843Z,7.94
2023-04-16T02:46:50.807Z,7.93
2023-04-16T02:47:50.891Z,7.91
2023-04-16T02:48:50.786Z,7.93
2023-04-16T02:49:50.795Z,7.91
2023-04-16T02:50:50.756Z,7.93
2023-04-16T02:51:50.777Z,7.95
2023-04-16T02:52:50.804Z,7.93
2023-04-16T02:53:50.733Z,7.93
2023-04-16T02:54:50.720Z,7.88
2023-04-16T02:55:50.700Z,7.88
2023-04-16T02:56:50.697Z,7.79
2023-04-16T02:57:50.726Z,7.77
2023-04-16T02:58:50.671Z,7.76
2023-04-16T02:59:50.672Z,7.76
2023-04-16T03:00:50.665Z,7.76
2023-04-16T03:01:50.724Z,7.76
2023-04-16T03:02:50.865Z,7.76
2023-04-16T03:03:50.657Z,7.72
2023-04-16T03:04:50.609Z,7.73
2023-04-16T03:05:50.585Z,7.76
2023-04-16T03:06:50.569Z,7.72
2023-04-16T03:07:50.603Z,7.72
2023-04-16T03:08:50.562Z,7.67
2023-04-16T03:09:50.549Z,7.67
2023-04-16T03:10:50.560Z,7.66
2023-04-16T03:11:50.526Z,7.63
2023-04-16T03:12:50.532Z,7.66
2023-04-16T03:13:50.490Z,7.63
2023-04-16T03:14:50.480Z,7.63
2023-04-16T03:15:50.514Z,7.61
2023-04-16T03:16:50.502Z,7.61
2023-04-16T03:17:50.558Z,7.60
2023-04-16T03:18:50.439Z,7.60
2023-04-16T03:19:50.451Z,7.58
2023-04-16T03:20:50.424Z,7.58
2023-04-16T03:21:50.426Z,7.58
2023-04-16T03:22:50.414Z,7.58
2023-04-16T03:23:50.382Z,7.57
2023-04-16T03:24:50.418Z,7.57
2023-04-16T03:25:50.375Z,7.58
2023-04-16T03:26:50.338Z,7.60
2023-04-16T03:27:50.391Z,7.63
2023-04-16T03:28:50.320Z,7.69
2023-04-16T03:29:50.320Z,7.72
2023-04-16T03:30:50.333Z,7.77
2023-04-16T03:31:50.303Z,7.82
2023-04-16T03:32:50.278Z,7.83
2023-04-16T03:33:50.324Z,7.83
2023-04-16T03:34:50.270Z,7.85
2023-04-16T03:35:50.258Z,7.85
2023-04-16T03:36:50.221Z,7.83
2023-04-16T03:37:50.226Z,7.85
2023-04-16T03:38:50.272Z,7.85
2023-04-16T03:39:50.189Z,7.82
2023-04-16T03:40:50.177Z,7.80
2023-04-16T03:41:50.177Z,7.79
2023-04-16T03:42:50.141Z,7.77
2023-04-16T03:43:50.175Z,7.75
2023-04-16T03:44:50.123Z,7.75
2023-04-16T03:45:50.122Z,7.73
2023-04-16T03:46:50.164Z,7.73
2023-04-16T03:47:50.130Z,7.72
2023-04-16T03:48:50.115Z,7.63
2023-04-16T03:49:50.079Z,7.72
2023-04-16T03:50:50.046Z,7.70
2023-04-16T03:51:50.130Z,7.67
2023-04-16T03:52:50.010Z,7.60
2023-04-16T03:53:50.056Z,7.58
2023-04-16T03:54:50.051Z,7.58
2023-04-16T03:55:50.007Z,7.61
2023-04-16T03:56:50.004Z,7.58
2023-04-16T03:57:49.978Z,7.60
2023-04-16T03:58:50.008Z,7.57
2023-04-16T03:59:49.964Z,7.56
2023-04-16T04:00:49.945Z,7.57
2023-04-16T04:01:50.054Z,7.56
2023-04-16T04:02:50.062Z,7.66
2023-04-16T04:03:50.184Z,7.69
2023-04-16T04:04:49.902Z,7.69
2023-04-16T04:05:49.889Z,7.69
2023-04-16T04:06:49.866Z,7.70
2023-04-16T04:07:49.855Z,7.72
2023-04-16T04:08:49.878Z,7.72
2023-04-16T04:09:49.833Z,7.77
2023-04-16T04:10:49.826Z,7.76
2023-04-16T04:11:49.799Z,7.88
2023-04-16T04:12:49.828Z,7.94
2023-04-16T04:13:49.827Z,7.97
2023-04-16T04:14:49.773Z,8.00
2023-04-16T04:15:49.769Z,8.00
2023-04-16T04:16:49.736Z,8.03
2023-04-16T04:17:49.789Z,8.03
2023-04-16T04:18:49.759Z,8.06
2023-04-16T04:20:00.445Z,8.10
2023-04-16T04:20:50.714Z,8.10
2023-04-16T04:21:49.690Z,8.12
2023-04-16T04:22:49.688Z,8.13
2023-04-16T04:23:49.741Z,8.13
2023-04-16T04:24:49.654Z,8.16
2023-04-16T04:25:49.687Z,8.12
2023-04-16T04:26:49.643Z,8.13
2023-04-16T04:27:49.624Z,8.15
2023-04-16T04:28:49.646Z,8.18
2023-04-16T04:29:49.611Z,8.19
2023-04-16T04:30:49.607Z,8.20
2023-04-16T04:31:49.613Z,8.20
2023-04-16T04:32:49.594Z,8.24
2023-04-16T04:33:49.605Z,8.23
2023-04-16T04:34:49.537Z,8.26
2023-04-16T04:35:49.544Z,8.26
2023-04-16T04:36:49.517Z,8.26
2023-04-16T04:37:49.519Z,8.26
2023-04-16T04:38:49.533Z,8.26
2023-04-16T04:39:49.489Z,8.27
2023-04-16T04:40:49.493Z,8.20
2023-04-16T04:41:49.470Z,8.24
2023-04-16T04:42:49.453Z,8.20
2023-04-16T04:43:49.461Z,8.26
2023-04-16T04:44:49.491Z,8.24
2023-04-16T04:45:49.669Z,8.26
2023-04-16T04:46:49.412Z,8.26
2023-04-16T04:47:49.473Z,8.27
2023-04-16T04:48:49.410Z,8.26
2023-04-16T04:49:49.357Z,8.28
2023-04-16T04:50:49.385Z,8.24
2023-04-16T04:51:49.330Z,8.26
2023-04-16T04:52:49.327Z,8.27
2023-04-16T04:53:49.389Z,8.28
2023-04-16T04:54:49.311Z,8.28
2023-04-16T04:55:52.316Z,8.23
2023-04-16T04:56:49.298Z,8.28
2023-04-16T04:57:49.280Z,8.24
2023-04-16T04:58:49.385Z,8.24
2023-04-16T04:59:49.249Z,8.26
2023-04-16T05:00:49.278Z,8.27
2023-04-16T05:01:49.256Z,8.28
2023-04-16T05:02:49.328Z,8.28
2023-04-16T05:03:49.304Z,8.30
2023-04-16T05:04:49.215Z,8.28
2023-04-16T05:05:49.198Z,8.26
2023-04-16T05:06:49.175Z,8.26
2023-04-16T05:07:49.173Z,8.26
2023-04-16T05:08:49.192Z,8.26
2023-04-16T05:09:49.129Z,8.28
2023-04-16T05:10:49.160Z,8.30
2023-04-16T05:11:49.121Z,8.28
2023-04-16T05:12:49.210Z,8.33
2023-04-16T05:13:49.143Z,8.36
2023-04-16T05:14:49.090Z,8.34
2023-04-16T05:15:49.086Z,8.36
2023-04-16T05:16:49.107Z,8.37
2023-04-16T05:17:49.114Z,8.37
2023-04-16T05:18:49.052Z,8.37
2023-04-16T05:19:49.056Z,8.41
2023-04-16T05:20:49.028Z,8.41
2023-04-16T05:21:48.995Z,8.44
2023-04-16T05:22:49.029Z,8.45
2023-04-16T05:23:48.972Z,8.46
2023-04-16T05:24:49.037Z,8.48
2023-04-16T05:25:48.952Z,8.48
2023-04-16T05:26:48.995Z,8.51
2023-04-16T05:27:48.948Z,8.49
2023-04-16T05:28:48.935Z,8.51
2023-04-16T05:29:48.961Z,8.53
2023-04-16T05:30:48.908Z,8.53
2023-04-16T05:31:48.899Z,8.53
2023-04-16T05:32:48.920Z,8.58
2023-04-16T05:33:48.862Z,8.58
2023-04-16T05:34:48.876Z,8.60
2023-04-16T05:35:48.848Z,8.60
2023-04-16T05:36:48.832Z,8.64
2023-04-16T05:37:48.827Z,8.64
2023-04-16T05:38:48.816Z,8.67
2023-04-16T05:39:48.845Z,8.70
2023-04-16T05:40:48.783Z,8.69
2023-04-16T05:41:48.755Z,8.71
2023-04-16T05:42:48.804Z,8.73
2023-04-16T05:43:48.752Z,8.78
2023-04-16T05:44:48.786Z,8.79
2023-04-16T05:45:48.789Z,8.79
2023-04-16T05:46:48.719Z,8.76
2023-04-16T05:47:48.769Z,8.73
2023-04-16T05:48:48.679Z,8.81
2023-04-16T05:49:48.713Z,8.84
2023-04-16T05:50:48.662Z,8.84
2023-04-16T05:51:50.344Z,8.84
2023-04-16T05:52:48.677Z,8.84
2023-04-16T05:53:48.633Z,8.82
2023-04-16T05:54:48.656Z,8.84
2023-04-16T05:55:48.611Z,8.84
2023-04-16T05:56:48.589Z,8.84
2023-04-16T05:57:48.590Z,8.84
2023-04-16T05:58:48.580Z,8.84
2023-04-16T05:59:48.593Z,8.87
2023-04-16T06:00:48.551Z,8.88
2023-04-16T06:01:48.578Z,8.89
2023-04-16T06:02:48.764Z,8.88
2023-04-16T06:03:48.623Z,8.91
2023-04-16T06:04:48.550Z,8.97
2023-04-16T06:05:48.529Z,9.00
2023-04-16T06:06:48.483Z,9.03
2023-04-16T06:07:48.487Z,9.06
2023-04-16T06:08:48.473Z,9.13
2023-04-16T06:09:48.488Z,9.14
2023-04-16T06:10:48.456Z,9.14
2023-04-16T06:11:48.418Z,9.14
2023-04-16T06:12:48.448Z,9.13
2023-04-16T06:13:48.403Z,9.11
2023-04-16T06:14:48.540Z,9.14
2023-04-16T06:15:48.376Z,9.14
2023-04-16T06:16:48.383Z,9.21
2023-04-16T06:17:48.370Z,9.25
2023-04-16T06:18:48.348Z,9.23
2023-04-16T06:19:48.334Z,9.28
2023-04-16T06:20:48.359Z,9.23
2023-04-16T06:21:48.318Z,9.29
2023-04-16T06:22:48.338Z,9.37
2023-04-16T06:23:48.298Z,9.40
2023-04-16T06:24:48.310Z,9.65
2023-04-16T06:25:48.331Z,9.50
2023-04-16T06:26:48.266Z,9.44
2023-04-16T06:27:48.271Z,9.40
2023-04-16T06:28:48.227Z,9.37
2023-04-16T06:29:48.256Z,9.41
2023-04-16T06:30:48.248Z,9.47
2023-04-16T06:31:48.276Z,9.44
2023-04-16T06:32:48.267Z,9.50
2023-04-16T06:33:48.160Z,9.55
2023-04-16T06:34:48.161Z,9.48
2023-04-16T06:35:48.206Z,9.47
2023-04-16T06:36:48.147Z,9.46
2023-04-16T06:37:48.117Z,9.46
2023-04-16T06:38:48.129Z,9.39
2023-04-16T06:39:48.110Z,9.40
2023-04-16T06:40:48.146Z,9.43
2023-04-16T06:41:48.097Z,9.46
2023-04-16T06:42:48.117Z,9.47
2023-04-16T06:43:48.064Z,9.46
2023-04-16T06:44:48.068Z,9.47
2023-04-16T06:45:48.087Z,9.54
2023-04-16T06:46:48.052Z,9.61
2023-04-16T06:47:48.163Z,9.64
2023-04-16T06:48:48.010Z,9.69
2023-04-16T06:49:47.997Z,9.72
2023-04-16T06:50:48.026Z,9.68
2023-04-16T06:51:47.972Z,9.72
2023-04-16T06:52:47.982Z,9.69
2023-04-16T06:53:47.944Z,9.72
2023-04-16T06:54:47.949Z,9.72
2023-04-16T06:55:47.965Z,9.74
2023-04-16T06:56:47.916Z,9.77
2023-04-16T06:57:47.917Z,9.84
2023-04-16T06:58:47.924Z,9.91
2023-04-16T06:59:47.898Z,9.83
2023-04-16T07:00:47.954Z,9.92
2023-04-16T07:01:47.917Z,10.05
2023-04-16T07:02:48.007Z,10.16
2023-04-16T07:03:48.048Z,10.23
2023-04-16T07:04:47.846Z,10.12
2023-04-16T07:05:47.877Z,9.89
2023-04-16T07:06:47.830Z,9.84
2023-04-16T07:07:47.796Z,9.83
2023-04-16T07:08:47.781Z,9.91
2023-04-16T07:09:47.766Z,9.99
2023-04-16T07:10:47.823Z,10.15
2023-04-16T07:11:47.754Z,10.28
2023-04-16T07:12:47.746Z,10.22
2023-04-16T07:13:47.726Z,10.22
2023-04-16T07:14:47.706Z,10.26
2023-04-16T07:15:47.724Z,10.26
2023-04-16T07:16:47.731Z,10.41
2023-04-16T07:17:47.669Z,10.17
2023-04-16T07:18:47.672Z,10.26
2023-04-16T07:19:47.670Z,10.42
2023-04-16T07:20:47.671Z,10.48
2023-04-16T07:21:47.636Z,10.64
2023-04-16T07:22:47.614Z,10.75
2023-04-16T07:23:47.608Z,10.82
2023-04-16T07:24:47.603Z,10.81
2023-04-16T07:25:47.624Z,10.86
2023-04-16T07:26:47.589Z,10.90
2023-04-16T07:27:47.554Z,11.15
2023-04-16T07:28:47.553Z,11.04
2023-04-16T07:29:47.533Z,11.18
2023-04-16T07:30:47.561Z,11.15
2023-04-16T07:31:47.529Z,11.33
2023-04-16T07:32:47.511Z,11.22
2023-04-16T07:33:47.493Z,11.12
2023-04-16T07:34:47.494Z,10.99
2023-04-16T07:35:47.511Z,11.11
2023-04-16T07:36:47.463Z,11.22
2023-04-16T07:37:47.469Z,11.18
2023-04-16T07:38:47.434Z,11.15
2023-04-16T07:39:47.422Z,11.15
2023-04-16T07:40:47.454Z,11.23
2023-04-16T07:41:47.396Z,11.35
2023-04-16T07:42:47.406Z,11.50
2023-04-16T07:43:47.435Z,11.70
2023-04-16T07:44:47.343Z,11.47
2023-04-16T07:45:47.378Z,11.54
2023-04-16T07:46:47.871Z,11.52
2023-04-16T07:47:47.370Z,11.29
2023-04-16T07:48:47.324Z,11.29
2023-04-16T07:49:47.309Z,11.30
2023-04-16T07:50:47.356Z,11.45
2023-04-16T07:51:47.286Z,11.52
2023-04-16T07:52:47.276Z,11.50
2023-04-16T07:53:47.244Z,11.66
2023-04-16T07:54:47.252Z,11.73
2023-04-16T07:55:47.236Z,11.86
2023-04-16T07:56:47.253Z,11.95
2023-04-16T07:57:47.219Z,12.17
2023-04-16T07:58:47.213Z,12.20
2023-04-16T07:59:47.208Z,12.24
2023-04-16T08:00:48.122Z,12.17
2023-04-16T08:01:47.171Z,12.18
2023-04-16T08:02:47.429Z,12.07
2023-04-16T08:03:47.467Z,12.12
2023-04-16T08:04:47.405Z,12.22
2023-04-16T08:05:47.194Z,12.24
2023-04-16T08:06:47.137Z,12.28
2023-04-16T08:07:47.100Z,12.21
2023-04-16T08:08:47.082Z,12.03
2023-04-16T08:09:47.066Z,11.78
2023-04-16T08:10:47.150Z,11.86
2023-04-16T08:11:47.036Z,11.81
2023-04-16T08:12:47.043Z,11.72
2023-04-16T08:13:47.020Z,11.63
2023-04-16T08:14:47.002Z,11.77
2023-04-16T08:15:47.013Z,11.86
2023-04-16T08:16:47.021Z,11.95
2023-04-16T08:17:47.058Z,12.06
2023-04-16T08:18:46.982Z,12.15
2023-04-16T08:19:46.977Z,12.15
2023-04-16T08:20:46.965Z,12.24
2023-04-16T08:21:46.993Z,12.27
2023-04-16T08:22:46.939Z,12.27
2023-04-16T08:23:46.914Z,12.36
2023-04-16T08:24:46.915Z,12.46
2023-04-16T08:25:46.892Z,12.50
2023-04-16T08:26:46.928Z,12.47
2023-04-16T08:27:46.905Z,12.42
2023-04-16T08:28:46.895Z,12.36
2023-04-16T08:29:46.862Z,12.42
2023-04-16T08:30:46.834Z,12.47
2023-04-16T08:31:47.010Z,12.39
2023-04-16T08:32:49.365Z,12.17
2023-04-16T08:33:46.793Z,11.99
2023-04-16T08:34:46.814Z,12.04
2023-04-16T08:35:46.832Z,12.00
2023-04-16T08:36:46.782Z,12.10
2023-04-16T08:37:46.778Z,12.18
2023-04-16T08:38:46.742Z,12.21
2023-04-16T08:39:46.752Z,12.24
2023-04-16T08:40:46.770Z,12.27
2023-04-16T08:41:46.736Z,12.29
2023-04-16T08:42:46.694Z,12.27
2023-04-16T08:43:46.681Z,12.02
2023-04-16T08:44:47.870Z,11.91
2023-04-16T08:45:46.701Z,12.07
2023-04-16T08:46:46.690Z,12.24
2023-04-16T08:47:46.701Z,12.31
2023-04-16T08:48:46.624Z,12.42
2023-04-16T08:49:46.634Z,12.45
2023-04-16T08:50:46.658Z,12.57
2023-04-16T08:51:46.590Z,12.67
2023-04-16T08:52:46.584Z,12.76
2023-04-16T08:53:46.560Z,12.90
2023-04-16T08:54:46.569Z,12.65
2023-04-16T08:55:47.604Z,12.58
2023-04-16T08:56:46.563Z,12.55
2023-04-16T08:57:46.527Z,12.54
2023-04-16T08:58:46.531Z,12.46
2023-04-16T08:59:46.510Z,12.24
2023-04-16T09:00:46.569Z,12.37
2023-04-16T09:01:46.578Z,12.47
2023-04-16T09:02:46.748Z,12.47
2023-04-16T09:03:46.617Z,12.40
2023-04-16T09:04:46.575Z,12.49
2023-04-16T09:05:46.490Z,12.32
2023-04-16T09:06:46.441Z,12.20
2023-04-16T09:07:46.455Z,12.24
2023-04-16T09:08:46.485Z,12.28
2023-04-16T09:09:46.398Z,12.02
2023-04-16T09:10:46.368Z,12.20
2023-04-16T09:11:46.408Z,12.43
2023-04-16T09:12:46.356Z,12.45
2023-04-16T09:13:46.354Z,12.39
2023-04-16T09:14:46.359Z,12.58
2023-04-16T09:15:46.315Z,12.68
2023-04-16T09:16:46.444Z,12.72
2023-04-16T09:17:46.371Z,12.91
2023-04-16T09:18:46.291Z,12.97
2023-04-16T09:19:46.280Z,12.64
2023-04-16T09:20:46.278Z,12.49
2023-04-16T09:21:46.302Z,12.39
2023-04-16T09:22:46.263Z,12.37
2023-04-16T09:23:46.226Z,12.12
2023-04-16T09:24:46.209Z,12.02
2023-04-16T09:25:46.224Z,12.17
2023-04-16T09:26:46.252Z,12.37
2023-04-16T09:27:46.206Z,12.22
2023-04-16T09:28:46.167Z,12.28
2023-04-16T09:29:46.156Z,12.27
2023-04-16T09:30:46.161Z,12.32
2023-04-16T09:31:46.226Z,12.35
2023-04-16T09:32:46.177Z,12.55
2023-04-16T09:33:46.109Z,12.72
2023-04-16T09:34:46.148Z,12.75
2023-04-16T09:35:46.098Z,12.83
2023-04-16T09:36:46.112Z,12.70
2023-04-16T09:37:46.079Z,12.90
2023-04-16T09:38:46.053Z,12.78
2023-04-16T09:39:46.053Z,12.60
2023-04-16T09:40:46.022Z,12.53
2023-04-16T09:41:46.040Z,12.55
2023-04-16T09:42:45.990Z,12.49
2023-04-16T09:43:45.998Z,12.53
2023-04-16T09:44:45.989Z,12.65
2023-04-16T09:45:46.014Z,12.82
2023-04-16T09:46:46.009Z,12.95
2023-04-16T09:47:46.017Z,13.03
2023-04-16T09:48:45.946Z,13.15
2023-04-16T09:49:45.926Z,13.39
2023-04-16T09:50:45.922Z,13.52
2023-04-16T09:51:45.953Z,13.70
2023-04-16T09:52:45.910Z,13.54
2023-04-16T09:53:45.898Z,13.53
2023-04-16T09:54:45.879Z,13.49
2023-04-16T09:55:46.962Z,13.50
2023-04-16T09:56:45.901Z,13.27
2023-04-16T09:57:45.840Z,13.15
2023-04-16T09:58:45.809Z,13.13
2023-04-16T09:59:45.849Z,13.01
2023-04-16T10:00:45.803Z,13.25
2023-04-16T10:01:45.927Z,13.60
2023-04-16T10:02:46.999Z,13.86
2023-04-16T10:03:45.950Z,13.70
2023-04-16T10:04:45.808Z,13.57
2023-04-16T10:05:45.734Z,13.70
2023-04-16T10:06:45.763Z,13.70
2023-04-16T10:07:45.718Z,13.75
2023-04-16T10:08:46.535Z,13.83
2023-04-16T10:09:45.678Z,13.87
2023-04-16T10:10:45.662Z,13.72
2023-04-16T10:11:45.746Z,13.70
2023-04-16T10:12:45.662Z,13.62
2023-04-16T10:13:45.672Z,13.47
2023-04-16T10:14:46.857Z,13.50
2023-04-16T10:15:45.640Z,13.53
2023-04-16T10:16:45.699Z,13.33
2023-04-16T10:17:45.625Z,13.39
2023-04-16T10:18:45.594Z,13.23
2023-04-16T10:19:45.583Z,13.35
2023-04-16T10:20:45.594Z,13.30
2023-04-16T10:21:45.621Z,13.30
2023-04-16T10:22:45.568Z,13.11
2023-04-16T10:23:45.534Z,13.01
2023-04-16T10:24:45.528Z,13.19
2023-04-16T10:25:45.540Z,13.42
2023-04-16T10:26:45.501Z,13.49
2023-04-16T10:27:45.513Z,13.35
2023-04-16T10:28:45.483Z,13.38
2023-04-16T10:29:45.475Z,13.41
2023-04-16T10:30:45.485Z,13.60
2023-04-16T10:31:45.487Z,13.67
2023-04-16T10:32:45.512Z,13.81
2023-04-16T10:33:45.401Z,13.87
2023-04-16T10:34:45.447Z,13.93
2023-04-16T10:35:46.816Z,13.70
2023-04-16T10:36:45.425Z,13.78
2023-04-16T10:37:45.376Z,13.68
2023-04-16T10:38:45.337Z,13.57
2023-04-16T10:39:45.346Z,13.67
2023-04-16T10:40:45.318Z,13.74
2023-04-16T10:41:45.358Z,13.96
2023-04-16T10:42:45.322Z,14.08
2023-04-16T10:43:45.333Z,13.99
2023-04-16T10:44:45.690Z,13.97
2023-04-16T10:45:45.401Z,14.17
2023-04-16T10:46:45.260Z,14.05
2023-04-16T10:47:45.333Z,13.93
2023-04-16T10:49:45.244Z,13.97
2023-04-16T10:50:45.247Z,13.90
2023-04-16T10:51:45.220Z,13.75
2023-04-16T10:52:45.243Z,13.78
2023-04-16T10:53:45.230Z,13.78
2023-04-16T10:54:45.180Z,13.74
2023-04-16T10:55:45.182Z,13.78
2023-04-16T10:56:45.157Z,14.00
2023-04-16T10:57:45.166Z,14.05
2023-04-16T10:58:45.143Z,14.14
2023-04-16T10:59:45.138Z,14.04
2023-04-16T11:00:45.114Z,13.97
2023-04-16T11:01:45.113Z,14.03
2023-04-16T11:02:45.325Z,13.67
2023-04-16T11:03:45.215Z,13.41
2023-04-16T11:04:45.330Z,13.47
2023-04-16T11:05:45.059Z,13.62
2023-04-16T11:06:45.016Z,13.65
2023-04-16T11:07:45.059Z,13.53
2023-04-16T11:08:54.068Z,13.60
2023-04-16T11:09:45.999Z,13.68
2023-04-16T11:10:44.991Z,13.85
2023-04-16T11:11:44.971Z,13.90
2023-04-16T11:12:45.033Z,13.77
2023-04-16T11:13:44.967Z,13.86
2023-04-16T11:14:44.947Z,13.60
2023-04-16T11:15:44.937Z,13.67
2023-04-16T11:16:44.917Z,13.85
2023-04-16T11:17:45.005Z,13.81
2023-04-16T11:18:51.624Z,13.96
2023-04-16T11:19:45.911Z,13.90
2023-04-16T11:20:44.864Z,13.81
2023-04-16T11:21:44.873Z,13.89
2023-04-16T11:22:44.872Z,13.57
2023-04-16T11:23:44.833Z,13.49
2023-04-16T11:24:44.829Z,13.41
2023-04-16T11:25:44.836Z,13.25
2023-04-16T11:26:44.805Z,13.03
2023-04-16T11:27:44.827Z,12.93
2023-04-16T11:28:44.795Z,13.19
2023-04-16T11:29:46.911Z,13.27
2023-04-16T11:30:44.778Z,13.41
2023-04-16T11:31:44.771Z,13.31
2023-04-16T11:32:44.834Z,13.47
2023-04-16T11:33:44.735Z,13.60
2023-04-16T11:34:44.712Z,13.71
2023-04-16T11:35:44.673Z,13.59
2023-04-16T11:36:44.677Z,13.35
2023-04-16T11:37:44.713Z,13.42
2023-04-16T11:38:44.682Z,13.49
2023-04-16T11:39:44.667Z,13.60
2023-04-16T11:40:44.662Z,13.57
2023-04-16T11:41:44.642Z,13.54
2023-04-16T11:42:44.708Z,13.52
2023-04-16T11:43:44.601Z,13.46
2023-04-16T11:44:44.575Z,13.59
2023-04-16T11:45:44.578Z,13.62
2023-04-16T11:46:44.618Z,13.65
2023-04-16T11:47:44.646Z,13.60
2023-04-16T11:48:44.555Z,13.75
2023-04-16T11:49:44.541Z,13.56
2023-04-16T11:50:44.532Z,13.41
2023-04-16T11:51:44.516Z,13.62
2023-04-16T11:52:44.539Z,13.63
2023-04-16T11:53:44.518Z,13.79
2023-04-16T11:54:44.495Z,13.68
2023-04-16T11:55:44.467Z,13.65
2023-04-16T11:56:44.496Z,14.23
2023-04-16T11:57:44.518Z,13.78
2023-04-16T11:58:44.437Z,13.77
2023-04-16T12:00:01.812Z,13.90
2023-04-16T12:00:45.414Z,13.67
2023-04-16T12:01:44.424Z,13.65
2023-04-16T12:02:44.595Z,13.89
2023-04-16T12:03:44.626Z,13.96
2023-04-16T12:04:44.425Z,14.14
2023-04-16T12:05:44.340Z,14.43
2023-04-16T12:06:44.327Z,14.20
2023-04-16T12:07:44.344Z,14.11
2023-04-16T12:08:44.326Z,14.05
2023-04-16T12:09:44.335Z,14.12
2023-04-16T12:10:44.306Z,14.25
2023-04-16T12:11:44.289Z,13.78
2023-04-16T12:12:44.321Z,13.79
2023-04-16T12:13:44.236Z,13.87
2023-04-16T12:14:44.259Z,13.92
2023-04-16T12:15:44.245Z,13.99
2023-04-16T12:16:44.278Z,13.95
2023-04-16T12:17:44.271Z,13.75
2023-04-16T12:18:44.207Z,13.60
2023-04-16T12:19:44.196Z,13.53
2023-04-16T12:20:44.178Z,13.38
2023-04-16T12:21:44.157Z,13.23
2023-04-16T12:22:44.208Z,13.12
2023-04-16T12:23:44.145Z,13.31
2023-04-16T12:24:44.139Z,13.15
2023-04-16T12:25:44.118Z,13.27
2023-04-16T12:26:44.112Z,13.30
2023-04-16T12:27:44.137Z,13.35
2023-04-16T12:28:44.094Z,13.31
2023-04-16T12:29:44.095Z,13.33
2023-04-16T12:30:44.098Z,13.23
2023-04-16T12:31:44.046Z,13.22
2023-04-16T12:32:44.102Z,13.27
2023-04-16T12:33:44.038Z,13.41
2023-04-16T12:34:48.357Z,13.16
2023-04-16T12:35:45.044Z,13.18
2023-04-16T12:36:43.985Z,13.30
2023-04-16T12:37:44.014Z,13.47
2023-04-16T12:38:44.027Z,13.63
2023-04-16T12:39:43.970Z,13.67
2023-04-16T12:40:43.964Z,13.46
2023-04-16T12:41:43.997Z,13.20
2023-04-16T12:42:43.997Z,13.22
2023-04-16T12:43:43.942Z,13.28
2023-04-16T12:44:43.908Z,13.31
2023-04-16T12:45:43.945Z,13.35
2023-04-16T12:46:44.002Z,13.44
2023-04-16T12:47:43.982Z,13.33
2023-04-16T12:48:43.896Z,13.23
2023-04-16T12:49:43.843Z,13.22
2023-04-16T12:50:43.821Z,13.35
2023-04-16T12:51:43.812Z,13.44
2023-04-16T12:52:43.906Z,13.49
2023-04-16T12:53:43.797Z,13.39
2023-04-16T12:54:43.788Z,13.31
2023-04-16T12:55:43.786Z,13.27
2023-04-16T12:56:43.793Z,13.27
2023-04-16T12:57:43.741Z,13.25
2023-04-16T12:58:43.778Z,13.27
2023-04-16T12:59:43.733Z,13.22
2023-04-16T13:00:43.736Z,13.35
2023-04-16T13:01:43.832Z,13.39
2023-04-16T13:02:43.798Z,13.39
2023-04-16T13:03:43.986Z,13.38
2023-04-16T13:04:43.733Z,13.42
2023-04-16T13:05:43.656Z,13.49
2023-04-16T13:06:43.646Z,13.49
2023-04-16T13:07:43.636Z,13.41